Time;durP1;ratioP1;P1;durP2;ratioP2;P2;SDS_P1;SDS_P2;PMS_P1;PMS_P2;Temp;Humidity;BMP_temperature;BMP_pressure;BME280_temperature;BME280_humidity;BME280_pressure;Samples;Min_cycle;Max_cycle;Signal;HPM_P1;HPM_P2
2021/12/02 00:01:29;;;;;;;0.28;0.28;;;6.30;99.90;;;;;;4418804;32;20125;-71
2021/12/02 00:03:55;;;;;;;0.40;0.40;;;6.40;99.90;;;;;;4418368;32;20603;-72
2021/12/02 00:06:22;;;;;;;0.30;0.30;;;6.30;99.90;;;;;;4418723;32;20449;-71
2021/12/02 00:08:49;;;;;;;1.65;1.45;;;6.40;99.90;;;;;;4418906;32;20065;-70
2021/12/02 00:11:17;;;;;;;0.30;0.30;;;6.30;99.90;;;;;;4416891;32;20101;-72
2021/12/02 00:13:54;;;;;;;1.98;1.10;;;6.30;99.90;;;;;;4416591;32;20069;-70
2021/12/02 00:16:29;;;;;;;0.30;0.30;;;6.30;99.90;;;;;;4418716;32;20097;-70
2021/12/02 00:21:03;;;;;;;0.20;0.20;;;6.30;99.90;;;;;;4416814;32;20109;-72
2021/12/02 00:21:45;;;;;;;0.30;0.30;;;6.30;99.90;;;;;;4418820;32;20208;-70
2021/12/02 00:24:14;;;;;;;0.37;0.37;;;6.20;99.90;;;;;;4418783;32;20184;-72
2021/12/02 00:26:39;;;;;;;0.32;0.32;;;6.30;99.90;;;;;;4419274;32;20599;-71
2021/12/02 00:29:07;;;;;;;0.30;0.30;;;6.20;99.90;;;;;;4419389;32;20050;-71
2021/12/02 00:31:36;;;;;;;0.20;0.20;;;6.20;99.90;;;;;;4418458;32;20646;-71
2021/12/02 00:34:05;;;;;;;0.70;0.43;;;6.10;99.90;;;;;;4417260;32;20128;-71
2021/12/02 00:36:32;;;;;;;0.30;0.30;;;6.10;99.90;;;;;;4419127;32;20413;-72
2021/12/02 00:39:02;;;;;;;1.75;0.75;;;6.10;99.90;;;;;;4419785;32;20523;-72
2021/12/02 00:41:29;;;;;;;0.30;0.30;;;6.10;99.90;;;;;;4418742;32;20093;-71
2021/12/02 00:43:56;;;;;;;0.30;0.30;;;6.10;99.90;;;;;;4419178;32;20045;-71
2021/12/02 00:46:24;;;;;;;0.20;0.20;;;6.10;99.90;;;;;;4417183;32;20081;-71
2021/12/02 00:48:50;;;;;;;0.30;0.30;;;6.10;99.90;;;;;;4419359;32;20094;-71
2021/12/02 00:51:17;;;;;;;0.30;0.30;;;6.10;99.90;;;;;;4419428;32;20409;-72
2021/12/02 00:53:46;;;;;;;0.50;0.50;;;6.20;99.90;;;;;;4420912;32;20124;-71
2021/12/02 00:56:16;;;;;;;0.30;0.30;;;6.10;99.90;;;;;;4417173;32;20054;-72
2021/12/02 00:58:45;;;;;;;0.30;0.30;;;6.20;99.90;;;;;;4416797;32;20201;-71
2021/12/02 01:01:11;;;;;;;0.32;0.32;;;6.10;99.90;;;;;;4419113;32;20128;-72
2021/12/02 01:03:38;;;;;;;0.30;0.30;;;6.20;99.90;;;;;;4416399;32;21215;-72
2021/12/02 01:06:06;;;;;;;0.30;0.30;;;6.20;99.90;;;;;;4416167;32;20090;-72
2021/12/02 01:08:34;;;;;;;2.17;1.60;;;6.10;99.90;;;;;;4416146;32;20207;-71
2021/12/02 01:11:00;;;;;;;0.32;0.32;;;5.90;99.90;;;;;;4418088;32;20096;-70
2021/12/02 01:13:26;;;;;;;0.30;0.30;;;5.80;99.90;;;;;;4416681;32;20073;-71
2021/12/02 01:15:51;;;;;;;0.30;0.30;;;5.70;99.90;;;;;;4416677;32;20113;-70
2021/12/02 01:18:17;;;;;;;0.30;0.30;;;5.30;99.90;;;;;;4417112;32;20111;-72
2021/12/02 01:20:46;;;;;;;0.30;0.30;;;4.90;99.90;;;;;;4417355;32;20053;-70
2021/12/02 01:23:12;;;;;;;0.43;0.43;;;4.70;99.90;;;;;;4416558;32;20089;-70
2021/12/02 01:25:40;;;;;;;0.45;0.45;;;4.60;99.90;;;;;;4417841;32;20150;-70
2021/12/02 01:28:07;;;;;;;0.30;0.30;;;4.40;99.90;;;;;;4419360;32;20554;-70
2021/12/02 01:30:33;;;;;;;0.30;0.30;;;4.30;99.90;;;;;;4419746;32;20127;-70
2021/12/02 01:33:01;;;;;;;0.30;0.30;;;4.20;99.90;;;;;;4417058;32;20069;-72
2021/12/02 01:35:29;;;;;;;0.30;0.30;;;4.10;99.90;;;;;;4418930;32;20117;-70
2021/12/02 01:37:55;;;;;;;0.30;0.30;;;4.10;99.90;;;;;;4417435;32;20191;-71
2021/12/02 01:40:21;;;;;;;0.30;0.30;;;4.10;99.90;;;;;;4417956;32;21277;-70
2021/12/02 01:42:52;;;;;;;0.30;0.30;;;4.10;99.90;;;;;;4418804;32;20842;-70
2021/12/02 01:45:22;;;;;;;0.30;0.30;;;4.10;99.90;;;;;;4419577;32;20126;-69
2021/12/02 01:47:51;;;;;;;0.30;0.30;;;4.10;99.90;;;;;;4415674;32;20452;-70
2021/12/02 01:50:20;;;;;;;0.30;0.30;;;4.20;99.90;;;;;;4417373;32;20547;-71
2021/12/02 01:52:53;;;;;;;0.40;0.40;;;4.10;99.90;;;;;;4418415;32;20140;-72
2021/12/02 01:55:19;;;;;;;0.30;0.30;;;4.00;99.90;;;;;;4420663;32;20169;-71
2021/12/02 01:58:02;;;;;;;0.30;0.30;;;4.10;99.90;;;;;;4420241;32;20125;-72
2021/12/02 02:00:33;;;;;;;0.40;0.40;;;4.10;99.90;;;;;;4418499;32;20100;-72
2021/12/02 02:03:02;;;;;;;0.30;0.30;;;4.20;99.90;;;;;;4418824;32;20092;-71
2021/12/02 02:05:28;;;;;;;1.27;0.70;;;4.20;99.90;;;;;;4417439;32;20412;-70
2021/12/02 02:08:04;;;;;;;0.30;0.30;;;4.20;99.90;;;;;;4416600;32;20472;-71
2021/12/02 02:10:37;;;;;;;0.30;0.30;;;4.20;99.90;;;;;;4418852;32;20776;-71
2021/12/02 02:13:07;;;;;;;0.30;0.30;;;4.10;99.90;;;;;;4417838;32;20098;-70
2021/12/02 02:15:33;;;;;;;0.30;0.30;;;3.90;99.90;;;;;;4417809;32;20081;-72
2021/12/02 02:18:08;;;;;;;0.30;0.30;;;3.80;99.90;;;;;;4422291;32;20073;-70
2021/12/02 02:20:42;;;;;;;0.30;0.30;;;3.70;99.90;;;;;;4416730;32;20150;-72
2021/12/02 02:23:12;;;;;;;0.30;0.30;;;3.70;99.90;;;;;;4417553;32;20097;-70
2021/12/02 02:25:39;;;;;;;0.30;0.30;;;3.70;99.90;;;;;;4415803;32;20057;-71
2021/12/02 02:28:05;;;;;;;0.40;0.40;;;3.70;99.90;;;;;;4417580;32;20098;-70
2021/12/02 02:30:31;;;;;;;0.30;0.30;;;3.90;99.90;;;;;;4418696;32;20085;-72
2021/12/02 02:32:57;;;;;;;0.30;0.30;;;3.90;99.90;;;;;;4418495;32;20141;-70
2021/12/02 02:35:23;;;;;;;0.30;0.30;;;3.90;99.90;;;;;;4419744;32;20081;-71
2021/12/02 02:37:48;;;;;;;0.30;0.30;;;4.00;99.90;;;;;;4417366;32;20103;-71
2021/12/02 02:40:16;;;;;;;0.30;0.30;;;4.00;99.90;;;;;;4417487;32;20811;-72
2021/12/02 02:42:45;;;;;;;0.30;0.30;;;4.00;99.90;;;;;;4419037;32;20590;-71
2021/12/02 02:45:11;;;;;;;0.30;0.30;;;4.10;99.90;;;;;;4417449;32;20093;-71
2021/12/02 02:47:37;;;;;;;0.30;0.30;;;4.20;99.90;;;;;;4416760;32;20140;-70
2021/12/02 02:50:03;;;;;;;0.30;0.30;;;4.20;99.90;;;;;;4418112;32;20130;-70
2021/12/02 02:52:32;;;;;;;0.40;0.40;;;4.30;99.90;;;;;;4417016;32;20448;-71
2021/12/02 02:54:58;;;;;;;2.92;0.47;;;4.30;99.90;;;;;;4415625;32;20061;-72
2021/12/02 02:57:27;;;;;;;0.30;0.30;;;4.30;99.90;;;;;;4417518;32;20098;-71
2021/12/02 03:00:06;;;;;;;0.30;0.30;;;4.30;99.90;;;;;;4416247;32;20070;-70
2021/12/02 03:03:23;;;;;;;0.47;0.47;;;4.30;99.90;;;;;;4415445;32;20139;-70
2021/12/02 03:05:25;;;;;;;0.30;0.30;;;4.30;99.90;;;;;;4413539;32;20078;-70
2021/12/02 03:07:56;;;;;;;0.30;0.30;;;4.40;99.90;;;;;;4418201;32;20519;-71
2021/12/02 03:10:57;;;;;;;0.40;0.40;;;4.30;99.90;;;;;;4421244;32;20061;-70
2021/12/02 03:13:18;;;;;;;0.30;0.30;;;4.30;99.90;;;;;;4417573;32;20153;-69
2021/12/02 03:16:44;;;;;;;0.30;0.30;;;4.30;99.90;;;;;;4420240;32;20119;-71
2021/12/02 03:18:30;;;;;;;0.35;0.35;;;4.30;99.90;;;;;;4417699;32;20122;-71
2021/12/02 03:20:56;;;;;;;1.75;1.05;;;4.40;99.90;;;;;;4418946;32;20066;-71
2021/12/02 03:23:23;;;;;;;1.48;0.95;;;4.40;99.90;;;;;;4419938;32;20100;-71
2021/12/02 03:25:49;;;;;;;0.30;0.30;;;4.40;99.90;;;;;;4418192;32;20128;-71
2021/12/02 03:28:14;;;;;;;0.30;0.30;;;4.40;99.90;;;;;;4418494;32;20534;-70
2021/12/02 03:30:40;;;;;;;0.47;0.47;;;4.40;99.90;;;;;;4419295;32;20119;-72
2021/12/02 03:33:05;;;;;;;0.30;0.30;;;4.40;99.90;;;;;;4418002;32;20061;-70
2021/12/02 03:35:31;;;;;;;0.40;0.40;;;4.40;99.90;;;;;;4419806;32;20498;-72
2021/12/02 03:37:57;;;;;;;0.30;0.30;;;4.40;99.90;;;;;;4418288;32;20132;-72
2021/12/02 03:40:23;;;;;;;7.28;0.80;;;4.40;99.90;;;;;;4420159;32;20118;-72
2021/12/02 03:42:51;;;;;;;0.30;0.30;;;4.40;99.90;;;;;;4419648;32;20093;-72
2021/12/02 03:45:18;;;;;;;0.43;0.43;;;4.40;99.90;;;;;;4418809;32;20077;-71
2021/12/02 03:48:05;;;;;;;0.37;0.37;;;4.40;99.90;;;;;;4417696;32;20078;-72
2021/12/02 03:50:31;;;;;;;0.30;0.30;;;4.40;99.90;;;;;;4416900;32;20104;-71
2021/12/02 03:52:56;;;;;;;0.82;0.62;;;4.30;99.90;;;;;;4418576;32;20706;-72
2021/12/02 03:55:24;;;;;;;0.30;0.30;;;4.30;99.90;;;;;;4420317;32;20425;-72
2021/12/02 03:57:50;;;;;;;0.30;0.30;;;4.40;99.90;;;;;;4418625;32;20077;-71
2021/12/02 04:00:16;;;;;;;0.40;0.40;;;4.40;99.90;;;;;;4418076;32;20155;-72
2021/12/02 04:02:41;;;;;;;0.30;0.30;;;4.40;99.90;;;;;;4419870;32;20622;-71
2021/12/02 04:05:07;;;;;;;4.95;1.62;;;4.40;99.90;;;;;;4418416;32;20097;-73
2021/12/02 04:07:33;;;;;;;0.30;0.30;;;4.30;99.90;;;;;;4417083;32;20135;-71
2021/12/02 04:09:59;;;;;;;1.00;0.82;;;4.30;99.90;;;;;;4417835;32;20066;-71
2021/12/02 04:12:33;;;;;;;0.30;0.30;;;4.40;99.90;;;;;;4421304;32;20078;-71
2021/12/02 04:15:05;;;;;;;0.40;0.40;;;4.30;99.90;;;;;;4419384;32;20073;-72
2021/12/02 04:17:46;;;;;;;0.30;0.30;;;4.30;99.90;;;;;;4419635;32;20082;-73
2021/12/02 04:20:15;;;;;;;0.40;0.40;;;4.30;99.90;;;;;;4418823;32;20448;-71
2021/12/02 04:22:43;;;;;;;0.60;0.60;;;4.30;99.90;;;;;;4416166;32;20073;-71
2021/12/02 04:25:10;;;;;;;1.27;0.85;;;4.30;99.90;;;;;;4420628;32;20548;-72
2021/12/02 04:27:35;;;;;;;0.30;0.30;;;4.30;99.90;;;;;;4420513;32;20061;-71
2021/12/02 04:30:05;;;;;;;0.30;0.30;;;4.30;99.90;;;;;;4419060;32;20599;-71
2021/12/02 04:32:30;;;;;;;0.30;0.30;;;4.30;99.90;;;;;;4412423;32;141580;-70
2021/12/02 04:34:57;;;;;;;0.50;0.50;;;4.30;99.90;;;;;;4418234;32;20113;-71
2021/12/02 04:37:22;;;;;;;0.30;0.30;;;4.20;99.90;;;;;;4418875;32;20069;-71
2021/12/02 04:39:48;;;;;;;2.53;1.00;;;4.20;99.90;;;;;;4417678;32;20712;-71
2021/12/02 04:42:13;;;;;;;0.30;0.30;;;4.10;99.90;;;;;;4417656;32;20919;-73
2021/12/02 04:44:39;;;;;;;0.30;0.30;;;4.10;99.90;;;;;;4421981;32;20104;-71
2021/12/02 04:47:04;;;;;;;0.30;0.30;;;4.10;99.90;;;;;;4419030;32;20089;-70
2021/12/02 04:49:30;;;;;;;0.75;0.75;;;4.20;99.90;;;;;;4418890;32;20089;-72
2021/12/02 04:51:55;;;;;;;0.30;0.30;;;4.20;99.90;;;;;;4418026;32;20421;-71
2021/12/02 04:54:21;;;;;;;0.35;0.35;;;4.20;99.90;;;;;;4416853;32;20439;-72
2021/12/02 04:56:47;;;;;;;0.30;0.30;;;4.10;99.90;;;;;;4417380;32;20093;-71
2021/12/02 04:59:12;;;;;;;0.90;0.70;;;4.10;99.90;;;;;;4418872;32;20148;-71
2021/12/02 05:01:38;;;;;;;0.30;0.30;;;4.10;99.90;;;;;;4417820;32;20077;-72
2021/12/02 05:04:03;;;;;;;0.40;0.40;;;4.00;99.90;;;;;;4418439;32;20089;-71
2021/12/02 05:06:29;;;;;;;0.30;0.30;;;4.00;99.90;;;;;;4417195;32;20168;-71
2021/12/02 05:08:54;;;;;;;0.30;0.30;;;4.00;99.90;;;;;;4417361;32;20514;-72
2021/12/02 05:11:20;;;;;;;0.30;0.30;;;4.00;99.90;;;;;;4417211;32;20133;-70
2021/12/02 05:13:45;;;;;;;0.50;0.50;;;4.00;99.90;;;;;;4417525;32;20081;-71
2021/12/02 05:16:11;;;;;;;0.30;0.30;;;3.90;99.90;;;;;;4418577;32;20086;-70
2021/12/02 05:18:36;;;;;;;0.30;0.30;;;3.90;99.90;;;;;;4417775;32;20114;-70
2021/12/02 05:21:02;;;;;;;0.30;0.30;;;3.90;99.90;;;;;;4414787;32;20057;-71
2021/12/02 05:23:28;;;;;;;0.40;0.40;;;3.80;99.90;;;;;;4413908;32;20092;-71
2021/12/02 05:25:53;;;;;;;0.40;0.40;;;3.80;99.90;;;;;;4417025;32;20073;-71
2021/12/02 05:28:19;;;;;;;0.35;0.35;;;3.80;99.90;;;;;;4419411;32;20077;-71
2021/12/02 05:30:46;;;;;;;0.37;0.37;;;3.80;99.90;;;;;;4418327;32;20475;-71
2021/12/02 05:33:12;;;;;;;0.37;0.37;;;3.90;99.90;;;;;;4417906;32;20838;-71
2021/12/02 05:35:37;;;;;;;0.40;0.40;;;3.80;99.90;;;;;;4417312;32;20310;-70
2021/12/02 05:38:03;;;;;;;0.40;0.40;;;3.90;99.90;;;;;;4416517;32;20475;-71
2021/12/02 05:40:29;;;;;;;0.30;0.30;;;3.90;99.90;;;;;;4418137;32;20086;-70
2021/12/02 05:42:55;;;;;;;1.20;1.10;;;3.90;99.90;;;;;;4417813;32;20073;-70
2021/12/02 05:45:20;;;;;;;0.40;0.40;;;3.90;99.90;;;;;;4417372;32;20089;-71
2021/12/02 05:47:46;;;;;;;0.30;0.30;;;3.90;99.90;;;;;;4416917;32;20566;-71
2021/12/02 05:50:11;;;;;;;1.52;0.85;;;3.90;99.90;;;;;;4417493;32;20073;-72
2021/12/02 05:52:37;;;;;;;0.30;0.30;;;4.00;99.90;;;;;;4418153;32;20072;-73
2021/12/02 05:55:02;;;;;;;0.40;0.40;;;3.90;99.90;;;;;;4418653;32;20412;-71
2021/12/02 05:57:28;;;;;;;0.32;0.32;;;3.90;99.90;;;;;;4418034;32;20104;-71
2021/12/02 05:59:56;;;;;;;0.40;0.40;;;3.90;99.90;;;;;;4413554;32;21024;-71
2021/12/02 06:02:22;;;;;;;0.40;0.40;;;4.00;99.90;;;;;;4409029;32;20112;-71
2021/12/02 06:04:51;;;;;;;0.30;0.30;;;4.00;99.90;;;;;;4415717;32;20618;-71
2021/12/02 06:07:17;;;;;;;0.30;0.30;;;4.00;99.90;;;;;;4413051;32;20160;-71
2021/12/02 06:09:43;;;;;;;0.60;0.60;;;4.00;99.90;;;;;;4415711;32;20104;-71
2021/12/02 06:12:09;;;;;;;0.32;0.32;;;3.90;99.90;;;;;;4415811;32;20127;-71
2021/12/02 06:14:34;;;;;;;0.45;0.45;;;3.90;99.90;;;;;;4415413;32;21259;-71
2021/12/02 06:17:00;;;;;;;2.92;0.95;;;3.90;99.90;;;;;;4407525;32;20147;-72
2021/12/02 06:19:26;;;;;;;0.30;0.30;;;3.90;99.90;;;;;;4411749;32;20072;-70
2021/12/02 06:21:52;;;;;;;0.32;0.32;;;3.90;99.90;;;;;;4415864;32;20096;-71
2021/12/02 06:24:19;;;;;;;0.30;0.30;;;3.90;99.90;;;;;;4416338;32;20102;-70
2021/12/02 06:26:45;;;;;;;0.30;0.30;;;3.80;99.90;;;;;;4403891;32;20144;-72
2021/12/02 06:29:10;;;;;;;0.30;0.30;;;3.80;99.90;;;;;;4407441;32;20541;-70
2021/12/02 06:31:36;;;;;;;0.30;0.30;;;3.80;99.90;;;;;;4394187;32;20077;-71
2021/12/02 06:34:02;;;;;;;0.40;0.40;;;3.70;99.90;;;;;;4408149;32;20390;-71
2021/12/02 06:36:28;;;;;;;0.30;0.30;;;3.60;99.90;;;;;;4412634;32;20069;-71
2021/12/02 06:38:54;;;;;;;0.30;0.30;;;3.70;99.90;;;;;;4406329;32;20152;-72
2021/12/02 06:41:20;;;;;;;0.50;0.50;;;3.60;99.90;;;;;;4412798;32;20073;-71
2021/12/02 06:43:46;;;;;;;0.30;0.30;;;3.60;99.90;;;;;;4407037;32;20449;-72
2021/12/02 06:46:11;;;;;;;0.40;0.40;;;3.60;99.90;;;;;;4409930;32;20094;-70
2021/12/02 06:48:37;;;;;;;0.40;0.40;;;3.60;99.90;;;;;;4409893;32;20073;-70
2021/12/02 06:51:02;;;;;;;1.55;1.17;;;3.60;99.90;;;;;;4409460;32;20102;-70
2021/12/02 06:53:28;;;;;;;0.30;0.30;;;3.60;99.90;;;;;;4403314;32;20924;-70
2021/12/02 06:55:54;;;;;;;0.40;0.40;;;3.60;99.90;;;;;;4405236;32;20409;-71
2021/12/02 06:58:20;;;;;;;0.30;0.30;;;3.60;99.90;;;;;;4402184;32;20116;-70
2021/12/02 07:00:46;;;;;;;0.35;0.35;;;3.60;99.90;;;;;;4397850;32;20318;-70
2021/12/02 07:03:11;;;;;;;3.03;0.95;;;3.60;99.90;;;;;;4402306;32;20140;-70
2021/12/02 07:05:37;;;;;;;0.30;0.30;;;3.60;99.90;;;;;;4403173;32;20108;-70
2021/12/02 07:08:02;;;;;;;0.30;0.30;;;3.60;99.90;;;;;;4393315;32;20108;-70
2021/12/02 07:10:31;;;;;;;0.30;0.30;;;3.60;99.90;;;;;;4391003;32;20488;-69
2021/12/02 07:12:57;;;;;;;0.40;0.40;;;3.60;99.90;;;;;;4402029;32;20081;-70
2021/12/02 07:15:29;;;;;;;0.40;0.40;;;3.50;99.90;;;;;;4395604;32;20173;-69
2021/12/02 07:17:58;;;;;;;0.30;0.30;;;3.50;99.90;;;;;;4405337;32;20081;-70
2021/12/02 07:20:25;;;;;;;0.40;0.40;;;3.50;99.90;;;;;;4404904;32;20539;-71
2021/12/02 07:22:51;;;;;;;0.40;0.40;;;3.50;99.90;;;;;;4403365;32;20094;-70
2021/12/02 07:25:16;;;;;;;0.40;0.40;;;3.50;99.90;;;;;;4410047;32;20106;-70
2021/12/02 07:27:42;;;;;;;0.30;0.30;;;3.40;99.90;;;;;;4412367;32;20064;-71
2021/12/02 07:30:09;;;;;;;0.40;0.40;;;3.40;99.90;;;;;;4405061;32;20124;-70
2021/12/02 07:32:37;;;;;;;0.52;0.50;;;3.40;99.90;;;;;;4408770;32;20570;-70
2021/12/02 07:35:07;;;;;;;0.20;0.20;;;3.40;99.90;;;;;;4398052;32;20112;-71
2021/12/02 07:37:34;;;;;;;0.40;0.40;;;3.30;99.90;;;;;;4407989;32;20101;-71
2021/12/02 07:40:00;;;;;;;0.30;0.30;;;3.30;99.90;;;;;;4409159;32;20581;-70
2021/12/02 07:42:26;;;;;;;0.52;0.52;;;3.30;99.90;;;;;;4396823;32;21607;-70
2021/12/02 07:44:51;;;;;;;0.30;0.30;;;3.30;99.90;;;;;;4397675;32;20163;-70
2021/12/02 07:47:17;;;;;;;0.30;0.30;;;3.20;99.90;;;;;;4397018;32;20098;-70
2021/12/02 07:49:43;;;;;;;0.43;0.43;;;3.30;99.90;;;;;;4403233;32;20798;-69
2021/12/02 07:52:10;;;;;;;0.40;0.40;;;3.30;99.90;;;;;;4393517;32;20794;-70
2021/12/02 07:54:39;;;;;;;0.28;0.28;;;3.30;99.90;;;;;;4401978;32;20538;-70
2021/12/02 07:57:04;;;;;;;0.40;0.40;;;3.30;99.90;;;;;;4404779;32;20073;-69
2021/12/02 07:59:30;;;;;;;0.30;0.30;;;3.30;99.90;;;;;;4405385;32;20088;-70
2021/12/02 08:02:00;;;;;;;0.30;0.30;;;3.30;99.90;;;;;;4400753;32;20524;-70
2021/12/02 08:04:27;;;;;;;0.37;0.37;;;3.40;99.90;;;;;;4396858;32;20872;-70
2021/12/02 08:06:52;;;;;;;0.28;0.28;;;3.40;99.90;;;;;;4400652;32;20100;-69
2021/12/02 08:09:18;;;;;;;0.85;0.82;;;3.40;99.90;;;;;;4406279;32;20203;-71
2021/12/02 08:11:43;;;;;;;0.30;0.30;;;3.40;99.90;;;;;;4402733;32;20089;-71
2021/12/02 08:14:15;;;;;;;0.40;0.40;;;3.40;99.90;;;;;;4409592;32;20104;-70
2021/12/02 08:16:40;;;;;;;0.43;0.43;;;3.50;99.90;;;;;;4411342;32;22185;-70
2021/12/02 08:19:06;;;;;;;0.30;0.30;;;3.40;99.90;;;;;;4400642;32;20097;-70
2021/12/02 08:21:31;;;;;;;0.30;0.30;;;3.50;99.90;;;;;;4396335;32;20545;-69
2021/12/02 08:23:57;;;;;;;0.30;0.30;;;3.40;99.90;;;;;;4397727;32;20081;-70
2021/12/02 08:26:22;;;;;;;0.30;0.30;;;3.40;99.90;;;;;;4400359;32;20238;-70
2021/12/02 08:28:48;;;;;;;0.30;0.30;;;3.40;99.90;;;;;;4401189;32;20077;-70
2021/12/02 08:31:15;;;;;;;0.30;0.30;;;3.40;99.90;;;;;;4393290;32;20610;-70
2021/12/02 08:33:40;;;;;;;0.30;0.30;;;3.40;99.90;;;;;;4387601;32;20355;-70
2021/12/02 08:36:06;;;;;;;0.30;0.30;;;3.50;99.90;;;;;;4402362;32;20110;-70
2021/12/02 08:38:33;;;;;;;0.40;0.40;;;3.50;99.90;;;;;;4407728;32;20700;-70
2021/12/02 08:41:00;;;;;;;0.60;0.60;;;3.60;99.90;;;;;;4415732;32;20084;-70
2021/12/02 08:43:26;;;;;;;0.30;0.30;;;3.80;99.90;;;;;;4411582;32;20444;-70
2021/12/02 08:45:53;;;;;;;0.60;0.60;;;3.90;99.90;;;;;;4413328;32;20094;-70
2021/12/02 08:48:21;;;;;;;0.30;0.30;;;3.90;99.90;;;;;;4406730;32;20112;-70
2021/12/02 08:50:47;;;;;;;0.30;0.30;;;4.00;99.90;;;;;;4407951;32;20494;-69
2021/12/02 08:53:13;;;;;;;0.40;0.40;;;3.90;99.90;;;;;;4411176;32;20203;-69
2021/12/02 08:55:40;;;;;;;0.40;0.40;;;4.00;99.90;;;;;;4418103;32;20511;-69
2021/12/02 08:58:09;;;;;;;3.92;0.55;;;3.90;99.90;;;;;;4411171;32;20090;-70
2021/12/02 09:00:37;;;;;;;0.30;0.30;;;3.80;99.90;;;;;;4410668;32;20097;-69
2021/12/02 09:03:04;;;;;;;0.30;0.30;;;3.80;99.90;;;;;;4401507;32;20101;-70
2021/12/02 09:05:30;;;;;;;0.30;0.30;;;3.80;99.90;;;;;;4397974;32;20126;-69
2021/12/02 09:07:57;;;;;;;0.30;0.30;;;3.80;99.90;;;;;;4396671;32;20472;-70
2021/12/02 09:10:23;;;;;;;0.35;0.35;;;3.70;99.90;;;;;;4409748;32;20069;-70
2021/12/02 09:12:53;;;;;;;0.32;0.32;;;3.80;99.90;;;;;;4414444;32;20152;-71
2021/12/02 09:15:19;;;;;;;0.30;0.30;;;3.90;99.90;;;;;;4409421;32;20101;-69
2021/12/02 09:17:44;;;;;;;0.30;0.30;;;3.80;99.90;;;;;;4410876;32;20073;-69
2021/12/02 09:20:15;;;;;;;0.40;0.40;;;3.90;99.90;;;;;;4415105;32;20089;-69
2021/12/02 09:22:42;;;;;;;0.30;0.30;;;4.00;99.90;;;;;;4414635;32;20081;-70
2021/12/02 09:25:08;;;;;;;0.30;0.30;;;3.90;99.90;;;;;;4412131;32;20084;-69
2021/12/02 09:27:34;;;;;;;0.30;0.30;;;4.00;99.90;;;;;;4412284;32;20098;-65
2021/12/02 09:30:00;;;;;;;0.40;0.40;;;4.00;99.90;;;;;;4415044;32;20104;-69
2021/12/02 09:32:27;;;;;;;0.40;0.40;;;4.00;99.90;;;;;;4413092;32;20609;-69
2021/12/02 09:34:53;;;;;;;0.50;0.50;;;4.20;99.90;;;;;;4417556;32;20077;-70
2021/12/02 09:37:18;;;;;;;0.30;0.30;;;4.10;99.90;;;;;;4416101;32;20114;-68
2021/12/02 09:39:44;;;;;;;0.40;0.40;;;4.00;99.90;;;;;;4413127;32;20553;-69
2021/12/02 09:42:10;;;;;;;0.30;0.30;;;4.10;99.90;;;;;;4412488;32;20084;-69
2021/12/02 09:44:37;;;;;;;0.60;0.60;;;4.20;99.90;;;;;;4411983;32;20511;-69
2021/12/02 09:47:03;;;;;;;0.40;0.40;;;4.10;99.90;;;;;;4410541;32;20196;-69
2021/12/02 09:49:29;;;;;;;0.62;0.62;;;4.10;99.90;;;;;;4415885;32;20123;-69
2021/12/02 09:54:26;;;;;;;0.62;0.62;;;4.40;99.90;;;;;;4414505;32;20494;-69
2021/12/02 09:56:56;;;;;;;0.40;0.40;;;4.50;99.90;;;;;;4411668;32;20130;-70
2021/12/02 09:59:28;;;;;;;1.20;1.05;;;4.50;99.90;;;;;;4408430;32;20070;-67
2021/12/02 10:02:01;;;;;;;0.60;0.60;;;4.40;99.90;;;;;;4409440;32;20731;-70
2021/12/02 10:04:28;;;;;;;0.30;0.30;;;4.40;99.90;;;;;;4408957;32;20101;-69
2021/12/02 10:07:20;;;;;;;0.40;0.40;;;4.60;99.90;;;;;;4413444;32;20579;-69
2021/12/02 10:10:05;;;;;;;0.32;0.32;;;4.70;99.90;;;;;;4408419;32;20077;-69
2021/12/02 10:12:34;;;;;;;0.90;0.50;;;4.70;99.90;;;;;;4411919;32;21822;-69
2021/12/02 10:15:02;;;;;;;3.30;1.00;;;4.60;99.90;;;;;;4412418;32;20560;-69
2021/12/02 10:21:06;;;;;;;0.30;0.30;;;4.60;99.90;;;;;;4412902;32;20089;-69
2021/12/02 10:23:14;;;;;;;0.30;0.30;;;4.70;99.90;;;;;;4403908;32;20085;-69
2021/12/02 10:25:46;;;;;;;0.37;0.37;;;4.70;99.90;;;;;;4407529;32;20109;-68
2021/12/02 10:28:14;;;;;;;0.40;0.40;;;4.60;99.90;;;;;;4407770;32;20659;-67
2021/12/02 10:30:42;;;;;;;2.75;1.95;;;4.70;99.90;;;;;;4404843;32;20069;-68
2021/12/02 10:33:09;;;;;;;0.40;0.40;;;4.70;99.90;;;;;;4397890;32;20109;-68
2021/12/02 10:35:39;;;;;;;0.32;0.32;;;4.60;99.90;;;;;;4408502;32;20569;-67
2021/12/02 10:38:05;;;;;;;0.40;0.40;;;4.50;99.90;;;;;;4402835;32;20205;-69
2021/12/02 10:40:31;;;;;;;0.30;0.30;;;4.40;99.90;;;;;;4407212;32;20108;-68
2021/12/02 10:43:06;;;;;;;0.40;0.40;;;4.40;99.90;;;;;;4404416;32;20097;-68
2021/12/02 10:45:32;;;;;;;0.40;0.40;;;4.50;99.90;;;;;;4402959;32;20073;-68
2021/12/02 10:47:58;;;;;;;0.30;0.30;;;4.60;99.90;;;;;;4405987;32;20156;-68
2021/12/02 10:50:25;;;;;;;0.40;0.40;;;4.80;99.90;;;;;;4402503;32;20097;-68
2021/12/02 10:52:51;;;;;;;0.40;0.40;;;4.80;99.90;;;;;;4406518;32;20085;-69
2021/12/02 10:55:22;;;;;;;0.40;0.40;;;4.80;99.90;;;;;;4401682;32;20094;-68
2021/12/02 10:57:50;;;;;;;0.40;0.40;;;4.80;99.90;;;;;;4401894;32;20140;-68
2021/12/02 11:00:19;;;;;;;0.40;0.40;;;4.80;99.90;;;;;;4397493;32;20090;-68
2021/12/02 11:02:49;;;;;;;0.98;0.52;;;4.80;99.90;;;;;;4394020;32;20409;-68
2021/12/02 11:05:20;;;;;;;0.30;0.30;;;4.90;99.90;;;;;;4403347;32;20151;-68
2021/12/02 11:07:55;;;;;;;0.32;0.32;;;4.90;99.90;;;;;;4398922;32;20871;-68
2021/12/02 11:10:22;;;;;;;0.32;0.32;;;5.10;99.90;;;;;;4404472;32;20089;-68
2021/12/02 11:12:50;;;;;;;0.30;0.30;;;5.10;99.90;;;;;;4398608;32;20771;-67
2021/12/02 11:15:18;;;;;;;0.30;0.30;;;5.10;99.90;;;;;;4405289;32;20093;-68
2021/12/02 11:17:49;;;;;;;0.30;0.30;;;5.20;99.90;;;;;;4411080;32;20630;-68
2021/12/02 11:20:18;;;;;;;0.40;0.40;;;5.40;99.90;;;;;;4404110;32;20208;-68
2021/12/02 11:22:44;;;;;;;0.30;0.30;;;5.50;99.90;;;;;;4407015;32;20104;-68
2021/12/02 11:25:12;;;;;;;0.37;0.37;;;5.40;99.90;;;;;;4405807;32;20582;-67
2021/12/02 11:27:41;;;;;;;0.57;0.57;;;5.60;99.90;;;;;;4407216;32;20146;-67
2021/12/02 11:30:11;;;;;;;0.40;0.40;;;5.70;99.90;;;;;;4415885;32;20150;-67
2021/12/02 11:32:38;;;;;;;;;;;5.70;99.90;;;;;;4416363;32;20182;-66
2021/12/02 11:35:27;;;;;;;0.30;0.30;;;5.80;99.90;;;;;;4412497;32;21474;-67
2021/12/02 11:38:01;;;;;;;0.30;0.30;;;6.10;99.90;;;;;;4413022;32;20480;-67
2021/12/02 11:40:29;;;;;;;0.30;0.30;;;6.10;99.90;;;;;;4409144;32;20077;-66
2021/12/02 11:42:56;;;;;;;0.30;0.30;;;6.00;99.90;;;;;;4413683;32;20065;-68
2021/12/02 11:45:24;;;;;;;0.30;0.30;;;6.10;99.90;;;;;;4413076;32;20329;-67
2021/12/02 11:47:52;;;;;;;1.05;0.98;;;6.30;99.90;;;;;;4410092;32;20070;-69
2021/12/02 11:50:19;;;;;;;2.10;0.55;;;6.50;99.90;;;;;;4413737;32;20088;-67
2021/12/02 11:52:45;;;;;;;0.40;0.40;;;6.90;99.90;;;;;;4408949;32;20481;-68
2021/12/02 11:55:31;;;;;;;0.30;0.30;;;6.90;99.90;;;;;;4404865;32;20094;-68
2021/12/02 11:57:57;;;;;;;0.25;0.25;;;7.10;99.90;;;;;;4404376;32;20069;-69
2021/12/02 12:00:25;;;;;;;0.25;0.25;;;7.10;99.90;;;;;;4413253;32;20113;-68
2021/12/02 12:03:01;;;;;;;0.65;0.60;;;7.10;99.90;;;;;;4410721;32;20066;-68
2021/12/02 12:05:31;;;;;;;1.10;0.73;;;7.20;99.90;;;;;;4406758;32;20472;-68
2021/12/02 12:07:57;;;;;;;0.30;0.30;;;7.20;99.40;;;;;;4407900;32;20114;-66
2021/12/02 12:10:27;;;;;;;0.30;0.30;;;7.30;98.30;;;;;;4407788;32;20072;-67
2021/12/02 12:13:09;;;;;;;0.30;0.30;;;7.30;98.70;;;;;;4411428;32;20806;-67
2021/12/02 12:15:40;;;;;;;0.30;0.30;;;7.60;98.20;;;;;;4407234;32;20437;-67
2021/12/02 12:18:09;;;;;;;0.32;0.32;;;7.50;97.60;;;;;;4410113;32;20184;-67
2021/12/02 12:20:55;;;;;;;0.30;0.30;;;7.70;97.40;;;;;;4408272;32;20079;-71
2021/12/02 12:23:46;;;;;;;0.30;0.30;;;7.70;96.40;;;;;;4410051;32;20069;-67
2021/12/02 12:26:24;;;;;;;0.40;0.40;;;8.00;97.20;;;;;;4409976;32;20099;-67
2021/12/02 12:29:08;;;;;;;0.30;0.30;;;8.20;96.20;;;;;;4411812;32;20527;-67
2021/12/02 12:31:56;;;;;;;0.30;0.30;;;8.30;95.20;;;;;;4415650;32;20097;-67
2021/12/02 12:34:39;;;;;;;0.30;0.30;;;8.30;95.40;;;;;;4408836;32;20113;-69
2021/12/02 12:37:45;;;;;;;0.25;0.25;;;8.00;96.40;;;;;;4409740;32;20085;-68
2021/12/02 12:40:15;;;;;;;0.40;0.40;;;7.90;95.90;;;;;;4410327;32;20430;-68
2021/12/02 12:42:45;;;;;;;0.30;0.30;;;8.10;95.70;;;;;;4409721;32;21011;-68
2021/12/02 12:45:23;;;;;;;0.32;0.32;;;7.90;95.50;;;;;;4411758;32;20555;-68
2021/12/02 12:47:51;;;;;;;0.37;0.37;;;7.70;95.80;;;;;;4408183;32;20117;-69
2021/12/02 12:50:28;;;;;;;0.88;0.50;;;7.80;96.50;;;;;;4406777;32;20073;-69
2021/12/02 12:53:04;;;;;;;0.30;0.30;;;7.90;95.70;;;;;;4418731;32;20061;-68
2021/12/02 12:55:32;;;;;;;0.30;0.30;;;7.70;95.40;;;;;;4422688;32;21668;-68
2021/12/02 12:58:17;;;;;;;0.30;0.30;;;7.30;95.70;;;;;;4417636;32;20490;-68
2021/12/02 13:00:48;;;;;;;0.30;0.30;;;7.10;96.60;;;;;;4414897;32;20076;-68
2021/12/02 13:03:17;;;;;;;0.40;0.40;;;6.70;96.90;;;;;;4414398;32;20117;-67
2021/12/02 13:05:54;;;;;;;0.30;0.30;;;6.60;97.80;;;;;;4415733;32;20118;-67
2021/12/02 13:08:48;;;;;;;0.30;0.30;;;6.50;98.00;;;;;;4421348;32;20787;-68
2021/12/02 13:11:18;;;;;;;0.30;0.30;;;6.30;97.90;;;;;;4414371;32;20085;-68